Time;durP1;ratioP1;P1;durP2;ratioP2;P2;SDS_P1;SDS_P2;PMS_P1;PMS_P2;Temp;Humidity;BMP_temperature;BMP_pressure;BME280_temperature;BME280_humidity;BME280_pressure;Samples;Min_cycle;Max_cycle;Signal;HPM_P1;HPM_P2
2022/07/10 00:00:47;;;;;;;1.47;1.00;;;16.10;93.50;;;;;;6084537;23;20454;-78
2022/07/10 00:03:14;;;;;;;1.43;0.90;;;16.00;93.50;;;;;;6090167;23;20435;-77
2022/07/10 00:05:49;;;;;;;1.47;1.00;;;16.00;93.40;;;;;;6095938;23;20442;-78
2022/07/10 00:08:16;;;;;;;1.47;0.90;;;16.00;93.90;;;;;;6076642;23;20719;-78
2022/07/10 00:10:44;;;;;;;1.47;0.90;;;16.00;93.80;;;;;;6102064;23;20418;-77
2022/07/10 00:13:11;;;;;;;1.50;1.10;;;15.90;94.30;;;;;;6075471;23;20815;-77
2022/07/10 00:15:38;;;;;;;1.50;1.00;;;15.90;94.60;;;;;;6093244;23;20828;-78
2022/07/10 00:18:05;;;;;;;1.60;1.30;;;15.90;94.70;;;;;;6078750;23;20796;-78
2022/07/10 00:20:33;;;;;;;1.50;1.00;;;15.90;94.80;;;;;;6092137;23;20429;-77
2022/07/10 00:23:00;;;;;;;1.50;1.00;;;15.80;94.90;;;;;;6077403;23;20505;-78
2022/07/10 00:25:27;;;;;;;1.43;1.00;;;15.80;95.10;;;;;;6096115;23;20450;-78
2022/07/10 00:27:55;;;;;;;1.50;1.00;;;15.80;95.30;;;;;;6077212;23;21065;-78
2022/07/10 00:30:22;;;;;;;1.50;1.00;;;15.70;95.90;;;;;;6097111;23;20660;-77
2022/07/10 00:32:49;;;;;;;1.47;0.90;;;15.70;96.00;;;;;;6078318;23;20450;-77
2022/07/10 00:35:16;;;;;;;1.50;1.00;;;15.70;96.00;;;;;;6094439;23;20490;-77
2022/07/10 00:37:43;;;;;;;1.50;0.90;;;15.70;95.30;;;;;;6078740;23;20533;-77
2022/07/10 00:40:12;;;;;;;1.50;0.90;;;15.70;95.80;;;;;;6093227;23;20474;-77
2022/07/10 00:42:39;;;;;;;1.50;0.90;;;15.70;95.60;;;;;;6076628;23;20457;-77
2022/07/10 00:45:08;;;;;;;1.47;0.90;;;15.70;95.40;;;;;;6091421;23;20478;-77
2022/07/10 00:47:36;;;;;;;1.50;1.00;;;15.60;95.80;;;;;;6076871;23;20480;-77
2022/07/10 00:50:03;;;;;;;1.50;0.90;;;15.60;95.80;;;;;;6091743;23;21005;-77
2022/07/10 00:52:30;;;;;;;1.47;1.00;;;15.70;95.60;;;;;;6075808;23;20965;-77
2022/07/10 00:54:58;;;;;;;1.50;1.00;;;15.70;96.20;;;;;;6092657;23;20443;-77
2022/07/10 00:57:25;;;;;;;1.47;0.90;;;15.70;95.70;;;;;;6077673;23;20450;-77
2022/07/10 00:59:53;;;;;;;1.43;0.90;;;15.70;96.30;;;;;;6091123;23;21046;-77
2022/07/10 01:02:21;;;;;;;1.47;0.90;;;15.70;95.50;;;;;;6075772;23;20483;-77
2022/07/10 01:04:48;;;;;;;1.43;1.00;;;15.70;95.80;;;;;;6101610;23;20509;-77
2022/07/10 01:07:15;;;;;;;1.47;1.00;;;15.80;95.50;;;;;;6077285;23;20549;-77
2022/07/10 01:09:43;;;;;;;1.47;0.90;;;15.80;95.30;;;;;;6092706;23;20422;-77
2022/07/10 01:12:11;;;;;;;1.50;1.00;;;15.80;95.30;;;;;;6077026;23;20449;-76
2022/07/10 01:14:39;;;;;;;1.50;0.90;;;15.80;95.30;;;;;;6091073;23;20471;-76
2022/07/10 01:17:08;;;;;;;1.43;0.90;;;15.80;94.80;;;;;;6077881;23;20517;-77
2022/07/10 01:19:37;;;;;;;1.50;0.90;;;15.90;94.60;;;;;;6091517;23;20446;-77
2022/07/10 01:22:05;;;;;;;1.50;1.00;;;15.90;94.80;;;;;;6076000;23;20478;-76
2022/07/10 01:24:32;;;;;;;1.47;1.00;;;15.90;94.70;;;;;;6093034;23;20438;-77
2022/07/10 01:26:59;;;;;;;1.47;1.00;;;15.90;94.50;;;;;;6078414;23;20522;-77
2022/07/10 01:29:27;;;;;;;1.50;1.00;;;16.00;94.30;;;;;;6094034;23;20414;-77
2022/07/10 01:31:54;;;;;;;1.43;1.00;;;16.00;94.10;;;;;;6076780;23;20454;-76
2022/07/10 01:34:21;;;;;;;1.50;0.90;;;16.00;94.10;;;;;;6075948;23;20453;-76
2022/07/10 01:36:48;;;;;;;1.50;1.00;;;16.00;93.90;;;;;;6078586;23;20976;-78
2022/07/10 01:39:16;;;;;;;1.43;0.90;;;16.00;94.30;;;;;;6098474;23;20536;-77
2022/07/10 01:41:43;;;;;;;1.50;1.00;;;16.00;94.70;;;;;;6076716;23;20454;-78
2022/07/10 01:44:10;;;;;;;1.50;1.00;;;16.00;94.90;;;;;;6092359;23;20837;-77
2022/07/10 01:46:45;;;;;;;1.47;1.00;;;16.00;95.30;;;;;;6078059;23;20454;-77
2022/07/10 01:49:12;;;;;;;1.50;1.00;;;16.00;95.00;;;;;;6092285;23;20428;-78
2022/07/10 01:51:39;;;;;;;1.43;1.00;;;16.00;95.60;;;;;;6073231;23;20521;-75
2022/07/10 01:54:06;;;;;;;1.47;1.00;;;16.10;95.30;;;;;;6092420;23;20453;-77
2022/07/10 01:56:35;;;;;;;1.50;1.00;;;16.10;95.20;;;;;;6076053;23;20964;-77
2022/07/10 01:59:03;;;;;;;1.47;0.90;;;16.10;95.10;;;;;;6091143;23;20485;-77
2022/07/10 02:01:30;;;;;;;1.50;1.00;;;16.10;95.20;;;;;;6081493;23;20450;-75
2022/07/10 02:06:42;;;;;;;1.50;0.90;;;16.10;95.20;;;;;;6076737;23;20525;-76
2022/07/10 02:09:09;;;;;;;1.47;1.00;;;16.10;95.20;;;;;;6091555;23;20490;-76
2022/07/10 02:11:37;;;;;;;1.43;0.90;;;16.10;95.40;;;;;;6075367;23;20769;-76
2022/07/10 02:14:04;;;;;;;1.43;0.97;;;16.00;95.40;;;;;;6091623;23;20960;-77
2022/07/10 02:16:31;;;;;;;1.50;1.00;;;16.00;95.70;;;;;;6077204;23;20466;-76
2022/07/10 02:18:58;;;;;;;1.43;0.90;;;16.00;95.80;;;;;;6100126;23;20691;-77
2022/07/10 02:21:25;;;;;;;1.50;1.00;;;15.90;95.50;;;;;;6074853;23;20454;-76
2022/07/10 02:23:52;;;;;;;1.43;1.00;;;15.90;96.00;;;;;;6089841;23;20429;-76
2022/07/10 02:26:19;;;;;;;1.50;1.00;;;15.90;96.30;;;;;;6077406;23;21082;-76
2022/07/10 02:28:47;;;;;;;1.43;0.90;;;15.80;96.00;;;;;;6090099;23;20434;-76
2022/07/10 02:31:14;;;;;;;1.47;1.00;;;15.80;96.60;;;;;;6076116;23;20530;-76
2022/07/10 02:33:41;;;;;;;1.47;1.00;;;15.70;96.20;;;;;;6090368;23;20433;-76
2022/07/10 02:36:08;;;;;;;1.50;1.00;;;15.70;96.40;;;;;;6080264;23;20447;-77
2022/07/10 02:38:36;;;;;;;1.50;0.90;;;15.70;96.60;;;;;;6092532;23;20461;-77
2022/07/10 02:41:03;;;;;;;1.50;1.00;;;15.60;96.80;;;;;;6079459;23;20426;-77
2022/07/10 02:43:30;;;;;;;1.47;1.00;;;15.60;97.30;;;;;;6098340;23;20454;-77
2022/07/10 02:45:58;;;;;;;1.47;0.90;;;15.50;97.20;;;;;;6081169;23;20450;-77
2022/07/10 02:48:34;;;;;;;1.50;1.00;;;15.50;96.80;;;;;;6095353;23;20419;-77
2022/07/10 02:51:01;;;;;;;1.47;0.97;;;15.50;96.80;;;;;;6078552;23;20531;-77
2022/07/10 02:53:28;;;;;;;1.47;1.00;;;15.50;97.60;;;;;;6093739;23;20546;-78
2022/07/10 02:55:55;;;;;;;1.50;1.00;;;15.50;97.70;;;;;;6079913;23;20505;-77
2022/07/10 02:58:22;;;;;;;1.50;0.97;;;15.40;97.60;;;;;;6101654;23;20871;-77
2022/07/10 03:00:49;;;;;;;1.50;1.10;;;15.50;97.50;;;;;;6079003;23;20477;-77
2022/07/10 03:03:18;;;;;;;1.50;1.00;;;15.40;98.20;;;;;;6091799;23;20430;-77
2022/07/10 03:05:45;;;;;;;1.50;0.90;;;15.50;98.20;;;;;;6093046;23;20963;-77
2022/07/10 03:08:12;;;;;;;1.50;1.00;;;15.40;98.20;;;;;;6078116;23;20813;-77
2022/07/10 03:10:40;;;;;;;1.50;1.00;;;15.40;98.20;;;;;;6092222;23;20823;-77
2022/07/10 03:13:07;;;;;;;1.50;1.00;;;15.40;98.20;;;;;;6076811;23;20771;-77
2022/07/10 03:15:34;;;;;;;1.50;1.00;;;15.40;98.20;;;;;;6092936;23;20471;-76
2022/07/10 03:18:02;;;;;;;1.50;1.00;;;15.40;98.20;;;;;;6078242;23;20446;-77
2022/07/10 03:20:31;;;;;;;1.47;0.90;;;15.40;98.20;;;;;;6093027;23;20713;-77
2022/07/10 03:22:58;;;;;;;1.43;1.00;;;15.30;98.20;;;;;;6077553;23;20884;-77
2022/07/10 03:25:25;;;;;;;1.50;1.00;;;15.30;98.20;;;;;;6093384;23;20434;-77
2022/07/10 03:27:52;;;;;;;1.50;1.00;;;15.40;98.20;;;;;;6079790;23;20526;-77
2022/07/10 03:30:19;;;;;;;1.50;1.00;;;15.40;98.20;;;;;;6095284;23;20427;-77
2022/07/10 03:32:47;;;;;;;1.50;1.00;;;15.40;98.20;;;;;;6078664;23;20451;-77
2022/07/10 03:35:14;;;;;;;1.50;1.00;;;15.30;98.20;;;;;;6093753;23;20443;-77
2022/07/10 03:37:42;;;;;;;1.47;1.00;;;15.30;98.20;;;;;;6080295;23;20506;-77
2022/07/10 03:40:11;;;;;;;1.50;1.00;;;15.30;98.20;;;;;;6092416;23;20454;-76
2022/07/10 03:42:38;;;;;;;1.50;1.00;;;15.20;98.20;;;;;;6077731;23;20455;-76
2022/07/10 03:45:06;;;;;;;1.50;1.00;;;15.20;98.20;;;;;;6091967;23;20478;-76
2022/07/10 03:47:33;;;;;;;1.50;1.00;;;15.20;98.20;;;;;;6077791;23;20454;-76
2022/07/10 03:50:00;;;;;;;1.47;1.00;;;15.20;98.20;;;;;;6100940;23;20419;-76
2022/07/10 03:52:27;;;;;;;1.43;1.00;;;15.20;98.20;;;;;;6075605;23;21022;-76
2022/07/10 03:54:56;;;;;;;1.50;1.03;;;15.20;98.20;;;;;;6092286;23;20478;-76
2022/07/10 04:00:10;;;;;;;1.50;0.90;;;15.20;98.20;;;;;;6101561;23;20454;-77
2022/07/10 04:02:37;;;;;;;1.50;1.00;;;15.10;98.20;;;;;;6078306;23;20450;-77
2022/07/10 04:05:07;;;;;;;1.47;0.90;;;15.10;98.20;;;;;;6092313;23;20804;-77
2022/07/10 04:07:35;;;;;;;1.50;1.00;;;15.10;98.20;;;;;;6076485;23;20447;-77
2022/07/10 04:10:04;;;;;;;1.50;1.00;;;15.10;98.20;;;;;;6090585;23;20470;-76
2022/07/10 04:12:31;;;;;;;1.50;1.00;;;15.10;98.20;;;;;;6074898;23;20451;-77
2022/07/10 04:14:59;;;;;;;1.50;1.00;;;15.10;98.20;;;;;;6091466;23;20453;-76
2022/07/10 04:17:26;;;;;;;1.50;0.90;;;15.10;98.20;;;;;;6078114;23;20456;-77
2022/07/10 04:19:53;;;;;;;1.47;1.00;;;15.10;98.20;;;;;;6094037;23;20473;-77
2022/07/10 04:22:20;;;;;;;1.50;1.00;;;15.10;98.20;;;;;;6079151;23;20450;-77
2022/07/10 04:24:47;;;;;;;1.50;1.00;;;15.00;98.20;;;;;;6108396;23;20521;-77
2022/07/10 04:27:16;;;;;;;1.50;1.00;;;15.00;98.20;;;;;;6081295;23;20482;-77
2022/07/10 04:29:44;;;;;;;1.47;0.93;;;15.00;98.20;;;;;;6096045;23;20482;-77
2022/07/10 04:32:11;;;;;;;1.50;1.00;;;15.00;98.20;;;;;;6084004;23;20526;-77
2022/07/10 04:34:39;;;;;;;1.50;1.00;;;15.00;98.20;;;;;;6102692;23;20815;-77
2022/07/10 04:37:07;;;;;;;1.47;1.00;;;15.10;98.20;;;;;;6079022;23;20509;-77
2022/07/10 04:39:34;;;;;;;1.50;1.00;;;15.10;98.20;;;;;;6095116;23;20538;-76
2022/07/10 04:42:01;;;;;;;1.50;1.00;;;15.10;98.20;;;;;;6082986;23;20478;-77
2022/07/10 04:44:31;;;;;;;1.47;0.90;;;15.20;98.20;;;;;;6095887;23;20450;-78
2022/07/10 04:46:58;;;;;;;1.50;1.00;;;15.20;98.20;;;;;;6079095;23;20973;-77
2022/07/10 04:49:25;;;;;;;1.47;1.00;;;15.30;98.20;;;;;;6092785;23;20422;-76
2022/07/10 04:51:52;;;;;;;1.40;1.00;;;15.40;98.20;;;;;;6076332;23;20451;-77
2022/07/10 04:54:19;;;;;;;1.50;1.00;;;15.50;98.20;;;;;;6092484;23;20478;-77
2022/07/10 04:56:47;;;;;;;1.50;0.93;;;15.70;98.20;;;;;;6078208;23;20967;-78
2022/07/10 04:59:14;;;;;;;1.50;1.10;;;15.90;98.20;;;;;;6102645;23;20502;-77
2022/07/10 05:01:42;;;;;;;1.47;1.00;;;16.10;98.20;;;;;;6076627;23;20736;-77
2022/07/10 05:04:09;;;;;;;1.50;1.00;;;16.30;98.20;;;;;;6093125;23;20446;-78
2022/07/10 05:06:36;;;;;;;1.50;1.10;;;16.60;98.20;;;;;;6078158;23;20491;-77
2022/07/10 05:09:05;;;;;;;1.50;0.97;;;16.90;97.50;;;;;;6095584;23;20992;-76
2022/07/10 05:11:34;;;;;;;1.47;1.00;;;16.90;97.00;;;;;;6077458;23;20873;-76
2022/07/10 05:14:01;;;;;;;1.50;0.90;;;17.10;96.50;;;;;;6104775;23;20438;-76
2022/07/10 05:16:29;;;;;;;1.50;1.00;;;17.40;96.60;;;;;;6082122;23;20517;-77
2022/07/10 05:18:57;;;;;;;1.50;0.90;;;17.60;95.00;;;;;;6095837;23;20526;-78
2022/07/10 05:21:25;;;;;;;1.50;0.90;;;17.60;94.40;;;;;;6086456;23;20453;-77
2022/07/10 05:23:53;;;;;;;1.47;0.90;;;17.70;94.10;;;;;;6100340;23;20511;-77
2022/07/10 05:26:20;;;;;;;1.50;1.00;;;17.90;94.00;;;;;;6085992;23;20456;-77
2022/07/10 05:28:47;;;;;;;1.50;0.90;;;18.10;93.60;;;;;;6099815;23;20442;-78
2022/07/10 05:31:14;;;;;;;1.50;0.90;;;18.20;93.40;;;;;;6085152;23;20446;-78
2022/07/10 05:33:43;;;;;;;1.47;0.90;;;18.40;92.30;;;;;;6099858;23;20415;-77
2022/07/10 05:36:11;;;;;;;1.50;0.90;;;18.50;92.60;;;;;;6086071;23;21020;-78
2022/07/10 05:38:38;;;;;;;1.50;0.90;;;18.80;91.80;;;;;;6110718;23;20691;-78
2022/07/10 05:41:07;;;;;;;1.50;0.90;;;19.20;90.80;;;;;;6094073;23;20507;-78
2022/07/10 05:43:35;;;;;;;1.50;0.90;;;19.40;89.60;;;;;;6113322;23;21369;-77
2022/07/10 05:46:02;;;;;;;1.50;0.90;;;19.60;89.00;;;;;;6097596;23;20493;-78
2022/07/10 05:48:29;;;;;;;1.43;0.90;;;19.70;89.00;;;;;;6099161;23;20838;-78
2022/07/10 05:50:58;;;;;;;1.47;0.93;;;19.80;88.30;;;;;;6088284;23;20422;-79
2022/07/10 05:53:27;;;;;;;1.50;0.90;;;19.90;87.30;;;;;;6099228;23;20434;-77
2022/07/10 05:55:54;;;;;;;1.47;0.90;;;19.90;87.70;;;;;;6089293;23;20446;-79
2022/07/10 05:58:21;;;;;;;1.47;0.90;;;20.00;86.80;;;;;;6099089;23;20646;-77
2022/07/10 06:00:50;;;;;;;2.30;2.10;;;20.00;86.50;;;;;;6085832;23;20446;-78
2022/07/10 06:03:18;;;;;;;1.50;0.97;;;19.90;86.40;;;;;;6107727;23;20482;-78
2022/07/10 06:05:45;;;;;;;1.47;0.90;;;19.80;87.40;;;;;;6100228;23;20449;-79
2022/07/10 06:08:13;;;;;;;1.40;0.90;;;19.70;87.40;;;;;;6083764;23;20434;-78
2022/07/10 06:10:43;;;;;;;1.43;0.90;;;19.50;87.70;;;;;;6099141;23;20450;-78
2022/07/10 06:13:11;;;;;;;1.40;0.90;;;19.50;88.60;;;;;;6081250;23;20441;-78
2022/07/10 06:15:39;;;;;;;1.47;0.90;;;19.40;88.70;;;;;;6098730;23;20443;-78
2022/07/10 06:18:06;;;;;;;1.50;0.90;;;19.40;88.70;;;;;;6085585;23;20470;-79
2022/07/10 06:20:33;;;;;;;1.47;0.90;;;19.40;88.70;;;;;;6101162;23;20517;-78
2022/07/10 06:23:01;;;;;;;1.47;0.90;;;19.50;87.80;;;;;;6085880;23;20485;-77
2022/07/10 06:25:28;;;;;;;1.50;0.90;;;19.40;88.10;;;;;;6098960;23;20980;-78
2022/07/10 06:28:00;;;;;;;1.47;0.90;;;19.40;88.00;;;;;;6084726;23;20485;-78
2022/07/10 06:30:27;;;;;;;1.47;0.90;;;19.40;88.60;;;;;;6099024;23;20944;-77
2022/07/10 06:32:57;;;;;;;1.50;0.90;;;19.40;88.00;;;;;;6081071;23;20465;-76
2022/07/10 06:35:28;;;;;;;1.47;0.90;;;19.40;87.60;;;;;;6112883;23;20481;-78
2022/07/10 06:37:55;;;;;;;1.47;0.90;;;19.10;87.00;;;;;;6083112;23;20970;-77
2022/07/10 06:40:22;;;;;;;1.47;0.90;;;19.10;87.50;;;;;;6095693;23;20478;-78
2022/07/10 06:42:50;;;;;;;1.47;0.90;;;19.00;88.00;;;;;;6078754;23;20451;-77
2022/07/10 06:45:21;;;;;;;1.47;0.90;;;18.90;88.30;;;;;;6088134;23;20451;-77
2022/07/10 06:47:56;;;;;;;1.60;1.33;;;18.80;88.40;;;;;;6076271;23;20461;-77
2022/07/10 06:50:24;;;;;;;1.50;0.90;;;18.70;89.10;;;;;;6101088;23;20454;-77
2022/07/10 06:52:52;;;;;;;1.50;0.90;;;18.60;90.10;;;;;;6075032;23;20454;-77
2022/07/10 06:55:20;;;;;;;1.47;0.93;;;18.40;90.40;;;;;;6098284;23;20453;-77
2022/07/10 06:57:47;;;;;;;1.43;0.90;;;18.30;90.40;;;;;;6078630;23;20603;-77
2022/07/10 07:00:15;;;;;;;1.47;0.90;;;18.30;91.20;;;;;;6095442;23;20451;-78
2022/07/10 07:02:44;;;;;;;1.47;0.90;;;18.30;91.20;;;;;;6078507;23;20454;-78
2022/07/10 07:05:11;;;;;;;1.50;0.90;;;18.30;90.80;;;;;;6095945;23;20937;-78
2022/07/10 07:07:38;;;;;;;1.47;0.90;;;18.30;90.70;;;;;;6082404;23;21004;-78
2022/07/10 07:10:07;;;;;;;1.50;1.00;;;18.30;90.80;;;;;;6095510;23;20927;-78
2022/07/10 07:12:34;;;;;;;1.50;0.90;;;18.30;90.20;;;;;;6079015;23;20776;-78
2022/07/10 07:15:17;;;;;;;1.47;0.90;;;18.20;91.10;;;;;;6097298;23;20474;-78
2022/07/10 07:18:07;;;;;;;1.43;0.90;;;18.30;90.00;;;;;;6080955;23;20459;-76
2022/07/10 07:23:19;;;;;;;1.47;0.90;;;18.30;90.20;;;;;;6079588;23;20438;-77
2022/07/10 07:25:47;;;;;;;1.50;0.90;;;18.30;90.40;;;;;;6088846;23;20502;-78
2022/07/10 07:28:17;;;;;;;1.47;0.90;;;18.30;91.10;;;;;;6089765;23;20435;-76
2022/07/10 07:30:45;;;;;;;1.50;0.90;;;18.30;91.00;;;;;;6091781;23;20474;-77
2022/07/10 07:33:13;;;;;;;1.40;0.90;;;18.30;91.00;;;;;;6073807;23;20438;-77
2022/07/10 07:35:44;;;;;;;1.47;0.90;;;18.30;90.90;;;;;;6097691;23;20442;-78
2022/07/10 07:38:12;;;;;;;1.43;0.90;;;18.20;90.90;;;;;;6075414;23;20470;-77
2022/07/10 07:40:39;;;;;;;1.47;0.93;;;18.20;90.90;;;;;;6090484;23;20493;-77
2022/07/10 07:43:06;;;;;;;1.47;0.90;;;18.10;91.50;;;;;;6076563;23;20458;-77
2022/07/10 07:45:33;;;;;;;1.43;0.90;;;18.10;91.20;;;;;;6092470;23;20446;-76
2022/07/10 07:48:02;;;;;;;1.50;0.90;;;18.20;91.10;;;;;;6078334;23;20454;-77
2022/07/10 07:50:34;;;;;;;1.43;0.90;;;18.20;91.40;;;;;;6096788;23;20426;-78
2022/07/10 07:53:03;;;;;;;1.50;0.90;;;18.30;91.20;;;;;;6079330;23;20514;-77
2022/07/10 07:55:32;;;;;;;1.47;0.90;;;18.30;91.20;;;;;;6097528;23;20442;-77
2022/07/10 07:58:00;;;;;;;1.47;0.90;;;18.30;90.40;;;;;;6078686;23;20800;-77
2022/07/10 08:00:31;;;;;;;1.47;0.90;;;18.20;90.00;;;;;;6096845;23;20778;-77
2022/07/10 08:03:00;;;;;;;1.50;0.90;;;18.10;90.40;;;;;;6079187;23;20461;-78
2022/07/10 08:05:28;;;;;;;1.50;0.90;;;18.10;90.90;;;;;;6094763;23;20453;-78
2022/07/10 08:07:58;;;;;;;1.50;0.90;;;18.10;90.20;;;;;;6079130;23;20533;-77
2022/07/10 08:10:27;;;;;;;1.50;0.90;;;18.10;90.50;;;;;;6103521;23;21054;-78
2022/07/10 08:12:55;;;;;;;1.47;0.90;;;18.10;90.90;;;;;;6076010;23;20991;-78
2022/07/10 08:15:23;;;;;;;1.50;0.90;;;18.10;90.50;;;;;;6091634;23;20502;-77
2022/07/10 08:17:53;;;;;;;1.43;0.90;;;18.20;90.90;;;;;;6080178;23;20451;-78
2022/07/10 08:20:24;;;;;;;1.50;0.90;;;18.20;90.60;;;;;;6103784;23;20465;-77
2022/07/10 08:22:53;;;;;;;1.50;0.90;;;18.30;91.50;;;;;;6081000;23;20526;-78
2022/07/10 08:25:22;;;;;;;1.47;0.90;;;18.40;91.00;;;;;;6100169;23;20966;-77
2022/07/10 08:27:50;;;;;;;1.40;0.90;;;18.40;91.20;;;;;;6081227;23;20454;-78
2022/07/10 08:30:22;;;;;;;1.40;0.90;;;18.40;91.10;;;;;;6106842;23;20443;-77
2022/07/10 08:32:50;;;;;;;1.47;0.90;;;18.40;91.60;;;;;;6080886;23;20493;-77
2022/07/10 08:35:17;;;;;;;1.47;0.90;;;18.40;91.10;;;;;;6113185;23;20442;-78
2022/07/10 08:38:05;;;;;;;1.40;0.90;;;18.40;91.40;;;;;;6094940;23;20937;-78
2022/07/10 08:40:37;;;;;;;1.40;0.90;;;18.40;91.30;;;;;;6097253;23;20461;-78
2022/07/10 08:43:20;;;;;;;1.47;0.97;;;18.50;90.70;;;;;;6082166;23;20800;-78
2022/07/10 08:45:49;;;;;;;1.47;0.90;;;18.50;91.40;;;;;;6096420;23;20446;-78
2022/07/10 08:48:20;;;;;;;1.40;0.90;;;18.60;91.50;;;;;;6096417;23;20466;-79
2022/07/10 08:50:49;;;;;;;1.47;0.90;;;18.70;91.80;;;;;;6094223;23;20439;-78
2022/07/10 08:53:24;;;;;;;1.50;0.90;;;18.70;91.40;;;;;;6095869;23;20441;-77
2022/07/10 08:55:54;;;;;;;1.43;0.90;;;18.70;91.60;;;;;;6081067;23;20517;-77
2022/07/10 08:58:22;;;;;;;1.40;0.90;;;18.70;91.80;;;;;;6104672;23;20481;-76
2022/07/10 09:00:51;;;;;;;1.50;0.90;;;18.70;91.90;;;;;;6081076;23;20477;-77
2022/07/10 09:03:19;;;;;;;1.47;0.90;;;18.60;92.90;;;;;;6097070;23;20935;-78
2022/07/10 09:05:51;;;;;;;1.47;0.90;;;18.60;92.80;;;;;;6096910;23;21016;-77
2022/07/10 09:08:58;;;;;;;1.50;0.90;;;18.60;93.00;;;;;;6098286;23;20565;-77
2022/07/10 09:11:30;;;;;;;1.47;0.90;;;18.60;93.40;;;;;;6088010;23;20476;-78
2022/07/10 09:13:59;;;;;;;1.47;0.90;;;18.70;93.40;;;;;;6106414;23;20443;-78
2022/07/10 09:16:30;;;;;;;1.47;0.90;;;18.90;92.50;;;;;;6080379;23;20494;-79
2022/07/10 09:18:57;;;;;;;1.47;0.90;;;19.10;92.10;;;;;;6105723;23;20450;-78
2022/07/10 09:21:25;;;;;;;1.50;0.90;;;19.30;91.50;;;;;;6086132;23;20514;-78
2022/07/10 09:23:56;;;;;;;1.43;0.87;;;19.40;91.50;;;;;;6101323;23;20450;-75
2022/07/10 09:26:26;;;;;;;1.47;0.90;;;19.50;91.30;;;;;;6086348;23;20470;-77
2022/07/10 09:29:08;;;;;;;1.47;0.90;;;19.50;90.80;;;;;;6108315;23;20426;-78
2022/07/10 09:31:50;;;;;;;1.47;0.90;;;19.50;90.60;;;;;;6081527;23;20583;-77
2022/07/10 09:34:17;;;;;;;1.43;0.90;;;19.50;90.90;;;;;;6093403;23;20473;-77
2022/07/10 09:36:56;;;;;;;1.43;0.90;;;19.60;90.80;;;;;;6079312;23;20534;-77
2022/07/10 09:39:23;;;;;;;1.50;0.90;;;19.60;91.10;;;;;;6104033;23;20411;-77
2022/07/10 09:41:52;;;;;;;1.50;0.90;;;19.60;90.90;;;;;;6077112;23;20474;-77
2022/07/10 09:44:21;;;;;;;1.47;0.90;;;19.60;91.30;;;;;;6101390;23;20831;-76
2022/07/10 09:46:49;;;;;;;1.50;0.90;;;19.40;90.90;;;;;;6088248;23;20979;-77
2022/07/10 09:49:16;;;;;;;1.43;0.90;;;19.50;91.30;;;;;;6092429;23;20431;-76
2022/07/10 09:51:45;;;;;;;1.50;0.90;;;19.50;91.10;;;;;;6077258;23;20478;-77
2022/07/10 09:54:14;;;;;;;1.47;0.90;;;19.40;91.70;;;;;;6092425;23;20443;-78
2022/07/10 09:56:44;;;;;;;1.50;0.90;;;19.40;91.60;;;;;;6084728;23;20584;-77
2022/07/10 09:59:14;;;;;;;1.43;0.90;;;19.30;92.00;;;;;;6105984;23;20493;-77
2022/07/10 10:01:46;;;;;;;1.47;0.90;;;19.30;92.50;;;;;;6081986;23;20529;-76
2022/07/10 10:04:15;;;;;;;1.43;0.90;;;19.20;92.90;;;;;;6089812;23;20446;-76
2022/07/10 10:06:43;;;;;;;1.50;0.90;;;19.10;93.10;;;;;;6075698;23;20461;-76
2022/07/10 10:09:20;;;;;;;1.40;0.90;;;19.20;92.90;;;;;;6092284;23;20486;-76
2022/07/10 10:11:50;;;;;;;1.50;0.90;;;19.20;92.90;;;;;;6076651;23;20454;-76
2022/07/10 10:14:27;;;;;;;1.47;0.90;;;19.20;93.00;;;;;;6092491;23;20448;-78
2022/07/10 10:16:59;;;;;;;1.43;0.90;;;19.10;93.80;;;;;;6079254;23;20473;-76
2022/07/10 10:22:15;;;;;;;1.47;0.90;;;19.20;94.10;;;;;;6080741;23;20562;-77
2022/07/10 10:24:57;;;;;;;1.47;0.90;;;19.40;93.50;;;;;;6093197;23;20823;-76
2022/07/10 10:27:25;;;;;;;1.50;0.90;;;19.40;94.10;;;;;;6083759;23;20455;-76
2022/07/10 10:29:55;;;;;;;1.47;0.87;;;19.50;95.50;;;;;;6091759;23;20437;-75
2022/07/10 10:36:07;;;;;;;1.50;0.90;;;19.90;95.50;;;;;;6090074;23;20792;-77
2022/07/10 10:39:04;;;;;;;1.47;0.90;;;20.30;94.20;;;;;;6074539;23;20442;-76
2022/07/10 10:41:38;;;;;;;1.50;0.90;;;20.50;92.70;;;;;;6078199;23;20526;-77
2022/07/10 10:44:23;;;;;;;1.50;0.90;;;20.60;91.70;;;;;;6101662;23;20521;-76
2022/07/10 10:47:09;;;;;;;1.47;0.90;;;20.60;91.80;;;;;;6075629;23;20454;-77
2022/07/10 10:50:01;;;;;;;1.47;0.90;;;20.70;92.80;;;;;;6102630;23;20434;-77
2022/07/10 10:52:29;;;;;;;1.50;0.90;;;21.10;91.90;;;;;;6078220;23;20533;-78
2022/07/10 10:55:12;;;;;;;1.47;0.90;;;21.40;90.80;;;;;;6092330;23;21201;-76
2022/07/10 10:57:48;;;;;;;1.50;0.87;;;21.80;89.40;;;;;;6077776;23;20557;-77
2022/07/10 11:00:37;;;;;;;1.50;0.90;;;22.10;87.40;;;;;;6103971;23;20921;-77
2022/07/10 11:03:26;;;;;;;1.50;0.90;;;22.10;86.20;;;;;;6077696;23;20451;-77
2022/07/10 11:05:55;;;;;;;1.50;0.90;;;21.70;87.40;;;;;;6089248;23;20450;-78
2022/07/10 11:08:40;;;;;;;1.50;0.90;;;21.40;88.30;;;;;;6100857;23;20514;-77
2022/07/10 11:11:40;;;;;;;1.50;0.83;;;21.20;89.30;;;;;;6075530;23;20730;-78
2022/07/10 11:14:13;;;;;;;1.50;0.90;;;20.90;90.30;;;;;;6091175;23;20497;-77
2022/07/10 11:16:50;;;;;;;1.50;0.90;;;20.60;90.80;;;;;;6080292;23;20454;-78
2022/07/10 11:19:24;;;;;;;1.47;0.90;;;20.50;91.30;;;;;;6093424;23;20415;-77
2022/07/10 11:22:04;;;;;;;1.47;0.90;;;20.40;90.80;;;;;;6082463;23;20450;-77
2022/07/10 11:25:04;;;;;;;1.43;0.90;;;20.30;91.90;;;;;;6093658;23;20537;-77
2022/07/10 11:27:53;;;;;;;1.50;0.90;;;20.30;93.70;;;;;;6080793;23;20532;-77
2022/07/10 11:30:30;;;;;;;1.47;0.90;;;20.20;95.90;;;;;;6100642;23;20426;-79
2022/07/10 11:33:05;;;;;;;1.43;0.90;;;20.20;96.00;;;;;;6086646;23;20455;-78
2022/07/10 11:35:33;;;;;;;1.50;0.90;;;20.20;96.90;;;;;;6097511;23;20450;-78
2022/07/10 11:38:02;;;;;;;1.50;0.90;;;20.20;96.70;;;;;;6078852;23;20461;-78
2022/07/10 11:40:29;;;;;;;1.43;0.90;;;20.30;96.80;;;;;;6094711;23;20418;-78
2022/07/10 11:43:00;;;;;;;1.50;0.90;;;20.40;96.80;;;;;;6079629;23;20684;-78
2022/07/10 11:45:30;;;;;;;1.47;0.90;;;20.50;96.60;;;;;;6105239;23;20525;-76
2022/07/10 11:47:59;;;;;;;1.77;1.00;;;20.50;95.40;;;;;;6081470;23;20454;-77
2022/07/10 11:50:27;;;;;;;1.50;0.90;;;20.40;95.90;;;;;;6103557;23;20419;-77
2022/07/10 11:52:55;;;;;;;1.50;0.90;;;20.40;94.70;;;;;;6081425;23;20526;-77
2022/07/10 11:55:29;;;;;;;1.50;0.90;;;20.30;94.80;;;;;;6099198;23;20446;-78
2022/07/10 11:57:56;;;;;;;1.50;0.90;;;20.20;94.50;;;;;;6082281;23;20454;-79
2022/07/10 12:00:29;;;;;;;1.43;0.90;;;20.20;94.60;;;;;;6108684;23;20453;-79
2022/07/10 12:03:19;;;;;;;1.47;0.90;;;20.10;95.70;;;;;;6083308;23;20454;-78
2022/07/10 12:05:47;;;;;;;1.50;0.90;;;20.00;95.30;;;;;;6091574;23;20530;-78
2022/07/10 12:08:15;;;;;;;1.50;0.90;;;20.10;95.40;;;;;;6095965;23;21023;-78
2022/07/10 12:10:46;;;;;;;1.50;0.90;;;20.30;95.70;;;;;;6107798;23;20436;-78
2022/07/10 12:13:15;;;;;;;1.47;0.90;;;20.50;94.50;;;;;;6077333;23;20557;-77
2022/07/10 12:15:44;;;;;;;1.50;0.90;;;20.70;94.60;;;;;;6094863;23;20450;-78
2022/07/10 12:18:17;;;;;;;1.47;0.90;;;20.80;93.60;;;;;;6078298;23;20445;-78
2022/07/10 12:20:47;;;;;;;1.50;0.90;;;20.90;92.70;;;;;;6094171;23;20418;-78
2022/07/10 12:23:16;;;;;;;1.47;0.90;;;20.90;92.40;;;;;;6080628;23;20454;-78
2022/07/10 12:25:49;;;;;;;1.47;0.90;;;20.90;91.80;;;;;;6098165;23;20470;-78
2022/07/10 12:28:17;;;;;;;1.47;0.90;;;20.70;91.50;;;;;;6079877;23;20441;-78
2022/07/10 12:30:46;;;;;;;1.50;0.90;;;20.70;91.90;;;;;;6093081;23;20443;-77
2022/07/10 12:33:17;;;;;;;1.43;0.90;;;20.60;92.20;;;;;;6077417;23;20437;-76
2022/07/10 12:35:52;;;;;;;1.50;0.90;;;20.50;93.00;;;;;;6104343;23;20458;-78
2022/07/10 12:38:20;;;;;;;1.50;0.90;;;20.40;93.00;;;;;;6077310;23;20437;-78
2022/07/10 12:40:49;;;;;;;1.50;0.90;;;20.40;93.20;;;;;;6089989;23;20502;-77
2022/07/10 12:43:28;;;;;;;1.43;0.90;;;20.40;93.20;;;;;;6092832;23;20814;-78
2022/07/10 12:46:14;;;;;;;1.50;0.90;;;20.30;93.30;;;;;;6079531;23;20450;-77
2022/07/10 12:48:44;;;;;;;1.50;0.90;;;20.30;93.50;;;;;;6090300;23;21121;-77
2022/07/10 12:51:47;;;;;;;1.43;0.90;;;20.20;93.20;;;;;;6081051;23;21079;-77
2022/07/10 12:54:36;;;;;;;1.43;0.80;;;20.20;93.30;;;;;;6094471;23;20466;-78
2022/07/10 12:57:07;;;;;;;1.43;0.90;;;20.10;93.70;;;;;;6076316;23;20458;-77
2022/07/10 12:59:35;;;;;;;1.50;0.90;;;20.10;92.80;;;;;;6093786;23;20423;-79
2022/07/10 13:02:18;;;;;;;1.50;0.90;;;20.30;93.40;;;;;;6075268;23;20530;-76
2022/07/10 13:04:54;;;;;;;1.50;0.90;;;20.50;93.10;;;;;;6090884;23;20450;-77
2022/07/10 13:07:41;;;;;;;;;;;;;;;;;;;;;
2022/07/10 13:10:09;;;;;;;1.47;0.90;;;20.90;91.50;;;;;;6108408;23;20426;-78
2022/07/10 13:12:45;;;;;;;1.47;0.90;;;21.00;91.20;;;;;;6085068;23;20457;-78
2022/07/10 13:18:17;;;;;;;1.40;0.90;;;21.20;89.70;;;;;;6081312;23;20473;-79
2022/07/10 13:20:45;;;;;;;1.50;0.90;;;21.30;90.00;;;;;;6090181;23;20505;-79